Time;durP1;ratioP1;P1;durP2;ratioP2;P2;SDS_P1;SDS_P2;PMS_P1;PMS_P2;Temp;Humidity;BMP_temperature;BMP_pressure;BME280_temperature;BME280_humidity;BME280_pressure;Samples;Min_cycle;Max_cycle;Signal;HPM_P1;HPM_P2
2022/06/12 00:00:10;;;;;;;8.32;2.40;;;;;;;15.28;68.11;102184.84;5038691;28;20025;-72
2022/06/12 00:02:36;;;;;;;13.57;2.78;;;;;;;15.25;68.47;102180.00;5057275;28;20029;-72
2022/06/12 00:05:02;;;;;;;12.15;2.80;;;;;;;15.15;69.08;102186.47;5038193;28;20466;-72
2022/06/12 00:07:28;;;;;;;16.10;2.92;;;;;;;15.22;69.42;102185.56;5054883;28;20104;-72
2022/06/12 00:09:53;;;;;;;10.82;2.30;;;;;;;15.21;69.30;102188.34;5054371;28;20116;-73
2022/06/12 00:12:18;;;;;;;11.15;2.40;;;;;;;15.19;69.11;102188.56;5036357;28;20111;-73
2022/06/12 00:14:44;;;;;;;11.18;2.40;;;;;;;15.25;69.30;102182.59;5054605;28;20514;-72
2022/06/12 00:17:09;;;;;;;10.48;2.17;;;;;;;15.21;69.73;102178.75;5035844;28;20082;-72
2022/06/12 00:19:35;;;;;;;14.90;2.58;;;;;;;15.14;70.16;102175.25;5053773;28;20032;-72
2022/06/12 00:22:01;;;;;;;12.75;2.58;;;;;;;15.09;70.48;102175.00;5035859;28;20029;-72
2022/06/12 00:24:27;;;;;;;18.73;3.00;;;;;;;15.12;70.43;102172.84;5035495;28;20498;-72
2022/06/12 00:26:55;;;;;;;11.68;2.40;;;;;;;15.01;71.18;102170.69;5053477;28;20043;-72
2022/06/12 00:29:22;;;;;;;9.82;2.42;;;;;;;15.16;70.56;102169.84;5035500;28;20033;-72
2022/06/12 00:31:51;;;;;;;12.35;2.28;;;;;;;14.97;71.12;102173.88;5055019;28;20120;-72
2022/06/12 00:34:19;;;;;;;13.45;2.45;;;;;;;15.01;70.53;102168.09;5055652;28;20120;-72
2022/06/12 00:36:45;;;;;;;10.60;2.42;;;;;;;15.03;71.17;102160.13;5055337;28;20028;-72
2022/06/12 00:39:10;;;;;;;9.88;2.40;;;;;;;15.05;70.30;102165.94;5038211;28;20472;-72
2022/06/12 00:41:37;;;;;;;12.10;2.40;;;;;;;14.97;69.95;102156.44;5038555;28;20033;-72
2022/06/12 00:44:04;;;;;;;14.25;2.53;;;;;;;15.02;69.80;102155.91;5038175;28;20538;-72
2022/06/12 00:46:47;;;;;;;10.15;2.75;;;;;;;14.96;70.37;102151.41;5055824;28;20099;-71
2022/06/12 00:49:26;;;;;;;8.65;2.30;;;;;;;14.96;69.72;102156.63;5038174;28;20075;-72
2022/06/12 00:52:10;;;;;;;10.45;2.33;;;;;;;15.03;69.74;102157.50;5055963;28;20028;-71
2022/06/12 00:54:39;;;;;;;10.57;2.20;;;;;;;14.91;70.03;102154.56;5037825;28;20028;-72
2022/06/12 00:57:06;;;;;;;10.63;2.30;;;;;;;14.85;70.41;102153.50;5037575;28;20024;-72
2022/06/12 00:59:34;;;;;;;11.07;2.58;;;;;;;14.97;70.23;102153.84;5055741;28;20029;-73
2022/06/12 01:02:00;;;;;;;10.70;2.50;;;;;;;14.92;70.08;102158.78;5037975;28;20452;-72
2022/06/12 01:07:15;;;;;;;13.27;2.53;;;;;;;14.92;70.48;102158.78;5055948;28;20068;-72
2022/06/12 01:09:43;;;;;;;11.68;2.40;;;;;;;14.86;70.59;102155.09;5055661;28;20032;-72
2022/06/12 01:12:14;;;;;;;11.13;2.35;;;;;;;14.91;70.92;102156.38;5037750;28;20359;-73
2022/06/12 01:14:44;;;;;;;10.05;2.38;;;;;;;14.88;70.89;102163.53;5037487;28;20037;-72
2022/06/12 01:17:10;;;;;;;8.77;2.17;;;;;;;14.86;71.12;102160.31;5037244;28;20079;-72
2022/06/12 01:19:41;;;;;;;13.32;2.30;;;;;;;14.87;71.05;102163.72;5055130;28;20032;-72
2022/06/12 01:22:34;;;;;;;12.00;2.20;;;;;;;14.74;70.95;102156.56;5055051;28;20023;-72
2022/06/12 01:25:32;;;;;;;11.35;2.35;;;;;;;14.73;71.32;102161.94;5055527;28;20031;-72
2022/06/12 01:28:16;;;;;;;13.25;2.67;;;;;;;14.79;70.96;102159.44;5055173;28;20395;-71
2022/06/12 01:31:10;;;;;;;13.17;2.43;;;;;;;14.68;71.49;102157.28;4999026;28;1106335;-73
2022/06/12 01:33:54;;;;;;;11.07;2.45;;;;;;;14.63;72.07;102151.81;5055455;28;20053;-72
2022/06/12 01:36:51;;;;;;;16.52;2.83;;;;;;;14.58;71.48;102131.53;5038367;28;20052;-72
2022/06/12 01:39:32;;;;;;;8.10;2.20;;;;;;;14.59;72.51;102151.38;5056308;28;20031;-72
2022/06/12 01:42:06;;;;;;;13.20;3.03;;;;;;;14.51;72.89;102151.44;5038434;28;20025;-73
2022/06/12 01:44:45;;;;;;;8.63;2.33;;;;;;;14.60;72.85;102152.97;5038447;28;20032;-73
2022/06/12 01:47:27;;;;;;;16.50;2.47;;;;;;;14.57;72.74;102152.53;5038057;28;20028;-72
2022/06/12 01:50:09;;;;;;;12.65;2.40;;;;;;;14.43;73.21;102154.09;5056046;28;20017;-72
2022/06/12 01:52:45;;;;;;;14.43;2.88;;;;;;;14.38;73.82;102151.22;5055932;28;20029;-72
2022/06/12 01:55:23;;;;;;;15.60;2.40;;;;;;;14.31;74.27;102155.53;5038236;28;20020;-71
2022/06/12 01:58:02;;;;;;;11.73;2.63;;;;;;;14.28;74.60;102145.50;5055981;28;20029;-72
2022/06/12 02:00:28;;;;;;;9.48;2.22;;;;;;;14.29;74.99;102140.09;5038276;28;20025;-71
2022/06/12 02:03:28;;;;;;;10.85;2.28;;;;;;;14.32;75.20;102144.16;5055626;28;20016;-71
2022/06/12 02:06:13;;;;;;;14.50;2.35;;;;;;;14.32;75.05;102142.34;5050043;28;20041;-71
2022/06/12 02:08:42;;;;;;;9.30;2.50;;;;;;;14.29;75.86;102142.69;5037432;28;20053;-72
2022/06/12 02:14:01;;;;;;;13.55;2.38;;;;;;;14.09;77.00;102136.41;5055731;28;20048;-72
2022/06/12 02:16:33;;;;;;;12.05;2.42;;;;;;;14.20;77.40;102146.38;5037292;28;20027;-72
2022/06/12 02:19:05;;;;;;;18.02;2.45;;;;;;;14.18;77.76;102151.78;5055351;28;20140;-72
2022/06/12 02:21:42;;;;;;;11.40;2.60;;;;;;;14.10;78.34;102143.25;5055340;28;20082;-71
2022/06/12 02:24:16;;;;;;;15.18;2.28;;;;;;;14.10;79.04;102151.03;5037664;28;20445;-72
2022/06/12 02:26:51;;;;;;;11.85;2.65;;;;;;;14.12;79.31;102141.25;5055175;28;20025;-73
2022/06/12 02:29:22;;;;;;;14.95;2.78;;;;;;;14.13;79.38;102135.09;5055411;28;20495;-73
2022/06/12 02:31:51;;;;;;;16.92;2.53;;;;;;;14.08;79.87;102134.81;5055267;28;20045;-73
2022/06/12 02:34:25;;;;;;;14.70;2.65;;;;;;;13.96;80.37;102124.84;5055072;28;20029;-72
2022/06/12 02:36:57;;;;;;;14.00;2.45;;;;;;;13.90;81.29;102130.75;5037563;28;20298;-71
2022/06/12 02:39:27;;;;;;;20.48;3.00;;;;;;;14.04;81.03;102128.31;5055211;28;20078;-71
2022/06/12 02:41:58;;;;;;;15.13;2.72;;;;;;;14.04;81.29;102129.16;5055297;28;20029;-71
2022/06/12 02:44:57;;;;;;;13.00;2.60;;;;;;;14.09;81.40;102132.00;5037227;28;20075;-71
2022/06/12 02:47:25;;;;;;;18.20;3.17;;;;;;;14.18;81.07;102135.34;5037387;28;20124;-72
2022/06/12 02:49:54;;;;;;;9.85;2.50;;;;;;;14.21;81.34;102138.41;5037104;28;20032;-71
2022/06/12 02:52:45;;;;;;;17.55;3.10;;;;;;;14.06;81.99;102126.38;5056132;28;20029;-72
2022/06/12 02:55:51;;;;;;;17.27;2.83;;;;;;;13.98;82.22;102138.47;5032431;28;20043;-72
2022/06/12 02:59:01;;;;;;;17.25;2.97;;;;;;;13.98;82.79;102140.22;5055026;28;20029;-72
2022/06/12 03:02:07;;;;;;;14.57;2.50;;;;;;;13.99;83.02;102139.28;4954176;29;20526;-71
2022/06/12 03:04:42;;;;;;;13.85;2.83;;;;;;;13.95;83.64;102141.41;4953787;29;20547;-71
2022/06/12 03:07:08;;;;;;;21.77;2.85;;;;;;;14.03;83.75;102131.91;5017607;28;20404;-72
2022/06/12 03:09:34;;;;;;;21.05;3.10;;;;;;;13.93;83.98;102129.59;5054594;28;20358;-72
2022/06/12 03:11:59;;;;;;;14.23;3.45;;;;;;;13.94;83.87;102126.78;5054923;28;20112;-71
2022/06/12 03:14:25;;;;;;;14.82;3.10;;;;;;;13.90;84.59;102124.75;5054630;28;20114;-72
2022/06/12 03:16:51;;;;;;;22.73;3.35;;;;;;;13.72;85.57;102127.63;5054070;28;20361;-71
2022/06/12 03:19:21;;;;;;;16.33;3.30;;;;;;;13.87;85.70;102119.91;5054495;28;20060;-72
2022/06/12 03:22:14;;;;;;;19.63;3.20;;;;;;;13.99;85.76;102123.69;5036298;28;20028;-71
2022/06/12 03:25:18;;;;;;;17.75;3.10;;;;;;;13.96;84.82;102127.44;5054382;28;20365;-72
2022/06/12 03:27:46;;;;;;;15.90;3.35;;;;;;;13.98;85.16;102129.84;4954038;29;20035;-72
2022/06/12 03:30:35;;;;;;;15.50;3.13;;;;;;;13.88;85.15;102132.69;5035274;28;20033;-72
2022/06/12 03:33:23;;;;;;;12.95;2.70;;;;;;;13.89;85.80;102136.91;5035913;28;20037;-71
2022/06/12 03:35:48;;;;;;;16.60;3.40;;;;;;;13.87;85.93;102128.50;5035836;28;20021;-72
2022/06/12 03:38:13;;;;;;;15.07;2.97;;;;;;;13.81;86.67;102130.97;5035890;28;20036;-72
2022/06/12 03:41:15;;;;;;;10.17;2.83;;;;;;;13.80;87.26;102130.16;5054037;28;20278;-72
2022/06/12 03:44:12;;;;;;;18.73;3.40;;;;;;;13.83;86.97;102137.59;5036348;28;20267;-72
2022/06/12 03:46:53;;;;;;;21.83;3.63;;;;;;;13.84;86.96;102139.25;5036010;28;20032;-72
2022/06/12 03:49:42;;;;;;;13.68;3.00;;;;;;;13.89;87.44;102138.69;5053433;28;20053;-72
2022/06/12 03:52:14;;;;;;;13.48;2.90;;;;;;;13.93;86.75;102143.38;5053872;28;20028;-72
2022/06/12 03:55:01;;;;;;;20.00;3.03;;;;;;;14.04;86.70;102149.13;5053685;28;20028;-72
2022/06/12 03:57:54;;;;;;;22.45;3.22;;;;;;;13.96;86.96;102152.63;5054042;28;20028;-72
2022/06/12 04:00:26;;;;;;;15.50;3.25;;;;;;;14.14;86.16;102153.09;5035939;28;20033;-73
2022/06/12 04:02:58;;;;;;;16.02;3.95;;;;;;;14.09;86.71;102146.81;5035876;28;20025;-71
2022/06/12 04:05:28;;;;;;;19.48;3.65;;;;;;;13.96;87.30;102143.03;5053265;28;20048;-70
2022/06/12 04:07:57;;;;;;;16.52;3.55;;;;;;;13.82;88.16;102123.00;5035691;28;20496;-71
2022/06/12 04:10:27;;;;;;;14.45;3.40;;;;;;;14.09;87.18;102139.81;5053281;28;20036;-72
2022/06/12 04:12:53;;;;;;;20.77;3.47;;;;;;;14.21;87.37;102141.00;5053643;28;20029;-72
2022/06/12 04:15:40;;;;;;;18.73;3.75;;;;;;;14.35;86.53;102147.19;5053801;28;20021;-73
2022/06/12 04:18:05;;;;;;;17.75;3.80;;;;;;;14.37;86.43;102137.44;5053434;28;20029;-72
2022/06/12 04:20:50;;;;;;;20.33;3.50;;;;;;;14.35;86.63;102143.78;5053589;28;20020;-72
2022/06/12 04:23:46;;;;;;;16.33;3.40;;;;;;;14.52;86.23;102137.44;5053424;28;20378;-73
2022/06/12 04:26:31;;;;;;;20.85;3.58;;;;;;;14.44;86.66;102151.34;5053536;28;20029;-71
2022/06/12 04:29:04;;;;;;;14.15;3.03;;;;;;;14.52;86.17;102147.06;5053349;28;20492;-73
2022/06/12 04:31:31;;;;;;;20.85;3.50;;;;;;;14.66;85.35;102159.25;5053394;28;20045;-73
2022/06/12 04:34:15;;;;;;;21.17;3.45;;;;;;;14.71;85.50;102154.31;5035478;28;20029;-73
2022/06/12 04:36:44;;;;;;;17.80;3.55;;;;;;;14.60;86.34;102152.16;5036045;28;20376;-73
2022/06/12 04:39:12;;;;;;;19.83;3.80;;;;;;;14.54;86.65;102151.09;5037206;28;20025;-72
2022/06/12 04:41:37;;;;;;;18.30;4.13;;;;;;;14.71;86.00;102156.13;5036241;28;20515;-74
2022/06/12 04:44:07;;;;;;;21.45;3.60;;;;;;;14.81;85.77;102159.25;5036268;28;20120;-71
2022/06/12 04:46:35;;;;;;;20.27;3.70;;;;;;;14.85;85.67;102156.09;5055257;28;20047;-71
2022/06/12 04:49:03;;;;;;;26.10;3.90;;;;;;;14.76;85.41;102145.97;5055846;28;20472;-77
2022/06/12 04:51:30;;;;;;;20.45;4.10;;;;;;;14.65;86.15;102149.84;5043948;28;20086;-73
2022/06/12 04:53:56;;;;;;;20.20;3.88;;;;;;;14.79;86.27;102156.03;5038425;28;20029;-75
2022/06/12 04:56:28;;;;;;;18.48;3.85;;;;;;;14.97;85.92;102156.44;5035887;28;20037;-71
2022/06/12 04:58:53;;;;;;;20.58;3.80;;;;;;;15.02;85.49;102155.91;5052603;28;20087;-71
2022/06/12 05:01:21;;;;;;;22.67;4.07;;;;;;;15.00;85.42;102158.69;5053262;28;20520;-72
2022/06/12 05:03:46;;;;;;;17.95;3.80;;;;;;;15.01;85.60;102157.69;5052695;28;20021;-72
2022/06/12 05:06:14;;;;;;;23.27;3.80;;;;;;;15.34;84.25;102150.25;5034946;28;20448;-71
2022/06/12 05:08:40;;;;;;;20.25;3.80;;;;;;;15.19;85.30;102146.88;5052741;28;20020;-72
2022/06/12 05:11:05;;;;;;;21.88;3.95;;;;;;;15.30;84.32;102148.19;5052986;28;20032;-72
2022/06/12 05:13:31;;;;;;;24.98;4.32;;;;;;;15.31;84.67;102148.00;5035038;28;20087;-71
2022/06/12 05:15:56;;;;;;;21.33;4.30;;;;;;;15.18;85.45;102155.66;5035077;28;20021;-71
2022/06/12 05:18:22;;;;;;;21.63;3.55;;;;;;;15.39;84.73;102149.66;5056450;28;20029;-71
2022/06/12 05:20:48;;;;;;;17.77;4.25;;;;;;;15.51;84.38;102163.84;5056731;28;20032;-72
2022/06/12 05:23:14;;;;;;;20.52;4.13;;;;;;;15.55;83.92;102159.06;5056371;28;20021;-72
2022/06/12 05:25:41;;;;;;;20.45;3.95;;;;;;;15.61;84.07;102163.53;5056647;28;20040;-72
2022/06/12 05:28:07;;;;;;;13.48;3.30;;;;;;;15.86;83.42;102155.34;5056623;28;20024;-72
2022/06/12 05:30:35;;;;;;;21.55;4.10;;;;;;;16.55;80.54;102158.03;5038836;28;20036;-72
2022/06/12 05:33:01;;;;;;;20.92;4.13;;;;;;;18.49;73.46;102163.31;5038333;28;20037;-72
2022/06/12 05:35:28;;;;;;;22.73;3.92;;;;;;;21.08;62.13;102159.66;5056444;28;20091;-72
2022/06/12 05:37:54;;;;;;;21.90;4.22;;;;;;;24.24;53.05;102172.16;5056367;28;20380;-72
2022/06/12 05:40:23;;;;;;;17.23;3.83;;;;;;;25.41;47.54;102170.00;5038622;28;20024;-72
2022/06/12 05:42:49;;;;;;;20.50;3.90;;;;;;;26.29;45.43;102169.44;5056371;28;20021;-72
2022/06/12 05:45:19;;;;;;;20.45;3.78;;;;;;;25.32;48.40;102169.66;5056243;28;20021;-72
2022/06/12 05:47:59;;;;;;;18.52;3.60;;;;;;;26.02;45.69;102165.09;5055966;28;20017;-72
2022/06/12 05:50:29;;;;;;;14.82;3.70;;;;;;;26.47;44.67;102168.19;5056207;28;20025;-72
2022/06/12 05:52:55;;;;;;;17.70;3.45;;;;;;;24.46;49.64;102159.00;5038122;28;20468;-72
2022/06/12 05:55:21;;;;;;;14.60;3.85;;;;;;;24.18;49.18;102168.66;5037826;28;20120;-72
2022/06/12 05:57:46;;;;;;;20.05;3.60;;;;;;;24.73;49.20;102164.31;5038287;28;20032;-72
2022/06/12 06:00:19;;;;;;;16.48;3.38;;;;;;;24.19;48.93;102175.53;5037973;28;20029;-72
2022/06/12 06:02:45;;;;;;;20.52;3.83;;;;;;;22.74;53.30;102175.28;5055695;28;20029;-72
2022/06/12 06:05:11;;;;;;;18.67;3.80;;;;;;;20.47;59.78;102183.19;5037691;28;20556;-72
2022/06/12 06:07:37;;;;;;;15.13;3.38;;;;;;;19.22;65.24;102177.97;5057023;28;20039;-72
2022/06/12 06:10:05;;;;;;;15.88;3.80;;;;;;;19.07;65.68;102186.09;5055983;28;20078;-72
2022/06/12 06:12:31;;;;;;;19.58;3.88;;;;;;;19.72;64.08;102179.88;5038698;28;20032;-71
2022/06/12 06:14:56;;;;;;;23.40;3.45;;;;;;;21.12;58.87;102181.84;5038129;28;20033;-74
2022/06/12 06:17:21;;;;;;;16.60;3.72;;;;;;;23.47;53.16;102181.59;5056185;28;20021;-72
2022/06/12 06:19:47;;;;;;;22.02;3.88;;;;;;;25.10;46.83;102177.63;5056579;28;20463;-73
2022/06/12 06:22:16;;;;;;;19.48;3.25;;;;;;;22.87;52.88;102176.81;5039649;28;20017;-72
2022/06/12 06:24:42;;;;;;;15.85;3.75;;;;;;;21.78;54.64;102157.19;5059642;28;20468;-73
2022/06/12 06:27:09;;;;;;;17.75;3.97;;;;;;;23.74;49.84;102189.72;5056617;28;20028;-73
2022/06/12 06:29:34;;;;;;;14.60;3.05;;;;;;;24.46;48.55;102190.72;5036322;28;20032;-72
2022/06/12 06:31:59;;;;;;;18.77;4.00;;;;;;;24.88;48.94;102187.47;5037363;28;20488;-71
2022/06/12 06:34:25;;;;;;;13.43;3.10;;;;;;;24.44;49.26;102172.44;5037334;28;20025;-71
2022/06/12 06:36:50;;;;;;;16.27;3.33;;;;;;;22.71;52.87;102196.81;5055711;28;20475;-72
2022/06/12 06:39:15;;;;;;;20.08;3.28;;;;;;;22.92;52.97;102195.38;5055350;28;20025;-72
2022/06/12 06:41:40;;;;;;;16.27;3.08;;;;;;;21.25;57.43;102197.41;5055116;28;20117;-72
2022/06/12 06:46:50;;;;;;;13.02;3.30;;;;;;;21.03;57.17;102201.56;5056203;28;20095;-72
2022/06/12 06:49:15;;;;;;;17.95;3.47;;;;;;;21.67;56.35;102200.06;5037152;28;20028;-72
2022/06/12 06:51:40;;;;;;;16.05;2.92;;;;;;;21.71;55.66;102206.47;5038174;28;20426;-73
2022/06/12 06:54:05;;;;;;;15.77;2.72;;;;;;;22.01;55.14;102211.66;5037006;28;20163;-73
2022/06/12 06:56:31;;;;;;;18.95;3.17;;;;;;;22.33;55.20;102207.88;5055698;28;20032;-72
2022/06/12 06:58:58;;;;;;;16.35;3.30;;;;;;;22.22;54.43;102204.25;5055750;28;20151;-74
2022/06/12 07:01:24;;;;;;;14.75;2.67;;;;;;;22.17;54.80;102204.94;5020946;28;20045;-71
2022/06/12 07:03:52;;;;;;;15.70;3.20;;;;;;;21.84;56.28;102213.38;5037524;28;20025;-72
2022/06/12 07:06:18;;;;;;;12.38;2.92;;;;;;;21.97;55.71;102215.75;5054762;28;20028;-72
2022/06/12 07:08:44;;;;;;;16.02;3.05;;;;;;;22.62;53.63;102214.03;5037373;28;20031;-72
2022/06/12 07:11:09;;;;;;;10.35;2.55;;;;;;;22.61;53.72;102218.47;5036805;28;20377;-72
2022/06/12 07:13:34;;;;;;;12.23;2.80;;;;;;;22.47;53.88;102220.59;5054475;28;20499;-72
2022/06/12 07:16:00;;;;;;;12.27;2.67;;;;;;;22.63;52.72;102220.91;5055155;28;20409;-72
2022/06/12 07:18:25;;;;;;;16.77;3.50;;;;;;;22.50;53.54;102216.69;5054676;28;20032;-72
2022/06/12 07:20:55;;;;;;;12.70;2.83;;;;;;;22.86;52.61;102220.03;5054400;28;20052;-72
2022/06/12 07:23:22;;;;;;;9.15;2.55;;;;;;;22.71;52.28;102217.91;5036675;28;20028;-72
2022/06/12 07:25:52;;;;;;;9.90;2.75;;;;;;;22.55;54.49;102218.63;5036489;28;20027;-72
2022/06/12 07:28:18;;;;;;;13.63;3.20;;;;;;;22.81;52.69;102206.75;5037352;28;20392;-72
2022/06/12 07:30:44;;;;;;;12.63;2.70;;;;;;;22.73;52.82;102215.84;5054045;28;20032;-73
2022/06/12 07:33:10;;;;;;;11.43;2.80;;;;;;;22.49;52.45;102215.88;5054216;28;20157;-72
2022/06/12 07:35:37;;;;;;;14.55;3.33;;;;;;;22.47;52.43;102214.50;5036044;28;20090;-73
2022/06/12 07:38:03;;;;;;;14.82;2.90;;;;;;;23.12;50.24;102208.16;5036483;28;20029;-72
2022/06/12 07:40:38;;;;;;;13.57;3.08;;;;;;;23.11;51.09;102222.38;5035941;28;20032;-72
2022/06/12 07:43:03;;;;;;;10.82;2.63;;;;;;;23.20;50.95;102213.06;5054251;28;20029;-72
2022/06/12 07:45:30;;;;;;;8.98;2.33;;;;;;;22.37;51.46;102217.72;5053820;28;20537;-72
2022/06/12 07:47:55;;;;;;;11.60;2.85;;;;;;;23.20;49.48;102220.97;5054012;28;20024;-72
2022/06/12 07:50:21;;;;;;;12.57;2.90;;;;;;;23.32;49.55;102221.69;5036136;28;20469;-72
2022/06/12 07:52:46;;;;;;;12.30;3.05;;;;;;;23.13;49.82;102215.84;5053821;28;20029;-72
2022/06/12 07:55:14;;;;;;;11.20;2.40;;;;;;;22.65;50.85;102214.38;5054320;28;20427;-73
2022/06/12 07:57:40;;;;;;;11.15;2.95;;;;;;;23.38;49.07;102218.09;5036133;28;20033;-73
2022/06/12 08:00:07;;;;;;;10.20;2.65;;;;;;;23.07;48.11;102218.59;5038371;28;20026;-72
2022/06/12 08:02:33;;;;;;;11.13;2.50;;;;;;;23.11;45.92;102223.19;5039077;28;20032;-73
2022/06/12 08:04:58;;;;;;;12.20;2.33;;;;;;;23.14;45.48;102222.72;5039863;28;20021;-71
2022/06/12 08:07:23;;;;;;;7.32;2.30;;;;;;;23.71;44.27;102221.03;5056061;28;20029;-71
2022/06/12 08:09:49;;;;;;;10.70;2.75;;;;;;;23.89;45.63;102222.66;5037954;28;20462;-72
2022/06/12 08:12:15;;;;;;;9.40;2.40;;;;;;;23.71;45.83;102223.66;5056177;28;20445;-73
2022/06/12 08:14:40;;;;;;;11.80;2.60;;;;;;;23.67;46.61;102222.53;5037589;28;20137;-72
2022/06/12 08:17:06;;;;;;;12.68;2.88;;;;;;;23.66;46.89;102216.47;5053905;28;20082;-72
2022/06/12 08:22:16;;;;;;;11.48;2.63;;;;;;;24.41;44.63;102227.59;5054646;28;20040;-73
2022/06/12 08:24:42;;;;;;;8.38;2.40;;;;;;;23.86;46.68;102221.28;5037158;28;20112;-72
2022/06/12 08:27:07;;;;;;;11.13;2.50;;;;;;;24.17;45.99;102216.44;5058733;28;20125;-72
2022/06/12 08:29:33;;;;;;;9.65;2.63;;;;;;;24.34;45.99;102219.84;5056030;28;20021;-72
2022/06/12 08:32:02;;;;;;;10.80;2.50;;;;;;;23.85;46.12;102219.66;5053708;28;20044;-72
2022/06/12 08:34:34;;;;;;;14.52;2.75;;;;;;;23.60;45.92;102214.78;5054681;28;20088;-71
2022/06/12 08:37:03;;;;;;;13.13;2.72;;;;;;;23.12;47.25;102214.22;5054634;28;20025;-72
2022/06/12 08:39:29;;;;;;;11.13;2.70;;;;;;;23.42;46.78;102221.09;5054811;28;20029;-72
2022/06/12 08:42:14;;;;;;;11.85;2.60;;;;;;;23.71;45.19;102203.38;5038688;28;20445;-73
2022/06/12 08:45:07;;;;;;;9.45;2.60;;;;;;;24.33;44.41;102216.38;5036155;28;20155;-72
2022/06/12 08:47:39;;;;;;;13.38;2.95;;;;;;;23.85;46.15;102212.56;5053060;28;20021;-74
2022/06/12 08:50:42;;;;;;;12.30;2.85;;;;;;;24.12;45.00;102211.91;5035212;28;20392;-73
2022/06/12 08:53:27;;;;;;;10.32;2.42;;;;;;;24.44;43.59;102206.78;5056339;28;20137;-72
2022/06/12 08:55:58;;;;;;;11.88;3.05;;;;;;;24.63;43.42;102211.75;5056976;28;20029;-72
2022/06/12 08:58:30;;;;;;;9.80;2.42;;;;;;;24.47;43.92;102213.44;5057059;28;20029;-72
2022/06/12 09:00:56;;;;;;;8.35;2.25;;;;;;;23.82;44.06;102199.88;5056980;28;20025;-73
2022/06/12 09:03:26;;;;;;;12.18;2.50;;;;;;;24.61;42.23;102198.81;5038660;28;20365;-73
2022/06/12 09:06:09;;;;;;;8.27;2.40;;;;;;;24.65;42.58;102194.59;5038607;28;20033;-72
2022/06/12 09:08:47;;;;;;;8.38;2.30;;;;;;;24.40;42.54;102195.09;5038392;28;20029;-72
2022/06/12 09:11:23;;;;;;;12.63;2.30;;;;;;;24.20;41.29;102197.47;5037029;28;20029;-72
2022/06/12 09:14:14;;;;;;;7.68;2.17;;;;;;;24.70;42.31;102193.88;5038624;28;20119;-72
2022/06/12 09:16:51;;;;;;;10.80;2.50;;;;;;;24.67;41.67;102197.81;5038965;28;20032;-71
2022/06/12 09:19:41;;;;;;;7.75;2.28;;;;;;;24.29;41.91;102194.16;5056210;28;20345;-71
2022/06/12 09:22:19;;;;;;;9.43;2.60;;;;;;;24.74;42.19;102187.03;5038435;28;20025;-71
2022/06/12 09:25:26;;;;;;;7.47;2.60;;;;;;;25.48;42.07;102191.72;5038570;28;20024;-71
2022/06/12 09:28:06;;;;;;;8.20;2.35;;;;;;;25.40;40.39;102187.69;5021965;28;20095;-71
2022/06/12 09:30:42;;;;;;;10.98;2.50;;;;;;;25.91;39.72;102194.44;5038861;28;20048;-71
2022/06/12 09:33:30;;;;;;;8.18;2.42;;;;;;;24.98;40.92;102188.38;5038310;28;20047;-71
2022/06/12 09:36:02;;;;;;;7.07;2.30;;;;;;;24.70;42.38;102168.25;5038707;28;20027;-72
2022/06/12 09:38:42;;;;;;;9.18;2.25;;;;;;;24.75;40.04;102189.44;5037983;28;20115;-72
2022/06/12 09:41:44;;;;;;;6.45;2.10;;;;;;;24.95;39.36;102193.34;5038288;28;20044;-71
2022/06/12 09:44:25;;;;;;;10.03;2.20;;;;;;;26.20;39.53;102182.41;5052027;28;20052;-71
2022/06/12 09:47:05;;;;;;;4.47;1.95;;;;;;;25.51;39.32;102185.94;5056012;28;20036;-71
2022/06/12 09:49:46;;;;;;;8.35;2.40;;;;;;;25.56;38.78;102190.47;5038214;28;20028;-72
2022/06/12 09:52:29;;;;;;;8.23;2.10;;;;;;;25.34;38.49;102185.25;5056121;28;20029;-71
2022/06/12 09:55:02;;;;;;;10.15;2.38;;;;;;;23.99;40.44;102197.19;5055937;28;20400;-71
2022/06/12 09:57:42;;;;;;;;;;;;;;;25.31;38.91;102196.34;5056378;28;20056;-71
2022/06/12 10:00:31;;;;;;;7.15;2.03;;;;;;;25.69;38.50;102203.25;5056049;28;19909;-73
2022/06/12 10:03:08;;;;;;;7.93;2.10;;;;;;;24.13;41.27;102202.91;5037625;28;20024;-71
2022/06/12 10:05:52;;;;;;;7.05;2.20;;;;;;;24.21;40.64;102196.44;5037775;28;20036;-72
2022/06/12 10:08:33;;;;;;;8.05;2.13;;;;;;;23.48;41.31;102206.94;5038154;28;20028;-72
2022/06/12 10:11:18;;;;;;;5.57;1.90;;;;;;;24.36;38.99;102201.09;5055582;28;20029;-74
2022/06/12 10:13:59;;;;;;;6.70;2.15;;;;;;;25.99;36.53;102193.97;5055810;28;20032;-73
2022/06/12 10:16:39;;;;;;;7.53;1.90;;;;;;;26.40;36.94;102197.59;5037930;28;20032;-73
2022/06/12 10:19:22;;;;;;;8.18;2.08;;;;;;;24.90;38.16;102217.09;5055810;28;20361;-72
2022/06/12 10:21:50;;;;;;;;;;;;;;;23.94;39.86;102217.41;5056301;28;20021;-72
2022/06/12 10:24:15;;;;;;;7.28;1.95;;;;;;;25.09;37.58;102205.13;5055843;28;20039;-74
2022/06/12 10:26:53;;;;;;;7.40;1.80;;;;;;;24.31;38.78;102204.47;5055403;28;20059;-72
2022/06/12 10:29:24;;;;;;;7.55;2.10;;;;;;;24.20;40.67;102203.56;5055503;28;20035;-72
2022/06/12 10:31:56;;;;;;;7.05;2.05;;;;;;;25.12;39.40;102206.47;5055447;28;20080;-72
2022/06/12 10:34:24;;;;;;;11.05;2.45;;;;;;;25.59;36.92;102193.41;5054912;28;20032;-73
2022/06/12 10:36:50;;;;;;;8.13;1.90;;;;;;;25.84;35.73;102199.97;5037864;28;20052;-72
2022/06/12 10:39:21;;;;;;;10.48;2.20;;;;;;;25.69;35.26;102189.22;5037423;28;20039;-72
2022/06/12 10:42:08;;;;;;;7.00;1.90;;;;;;;24.84;37.27;102191.66;5037755;28;20044;-73
2022/06/12 10:44:53;;;;;;;4.35;1.60;;;;;;;25.21;37.43;102184.63;5037612;28;20016;-73
2022/06/12 10:47:22;;;;;;;5.78;2.15;;;;;;;25.21;37.63;102186.50;5055484;28;20056;-74
2022/06/12 10:50:01;;;;;;;8.50;2.30;;;;;;;26.23;36.99;102197.00;5037419;28;20036;-72
2022/06/12 10:52:27;;;;;;;7.78;2.17;;;;;;;24.62;38.34;102194.31;5055223;28;20033;-72
2022/06/12 10:54:53;;;;;;;7.03;1.95;;;;;;;24.84;36.77;102202.22;5055211;28;20167;-73
2022/06/12 10:57:45;;;;;;;7.47;1.83;;;;;;;24.99;37.46;102173.28;5054826;28;20100;-73
2022/06/12 11:00:15;;;;;;;5.37;1.90;;;;;;;25.33;37.37;102187.13;5037058;28;20488;-72
2022/06/12 11:03:06;;;;;;;6.85;1.75;;;;;;;25.41;38.07;102186.66;5036466;28;20478;-72
2022/06/12 11:05:46;;;;;;;11.63;2.20;;;;;;;24.37;39.50;102184.19;5054714;28;20037;-73
2022/06/12 11:08:47;;;;;;;7.28;1.90;;;;;;;25.76;37.79;102185.31;5053205;28;20528;-74
2022/06/12 11:11:23;;;;;;;9.85;1.95;;;;;;;25.69;37.08;102179.44;5053790;28;20036;-74
2022/06/12 11:14:26;;;;;;;10.32;2.40;;;;;;;25.93;37.72;102187.03;5054399;28;20463;-74
2022/06/12 11:17:10;;;;;;;7.70;1.77;;;;;;;25.61;37.64;102180.72;5036889;28;20035;-73
2022/06/12 11:19:57;;;;;;;7.65;2.22;;;;;;;25.18;38.71;102187.00;5054658;28;20060;-73
2022/06/12 11:22:31;;;;;;;9.68;2.33;;;;;;;24.55;38.40;102194.50;5054196;28;20025;-73
2022/06/12 11:25:14;;;;;;;7.85;2.35;;;;;;;25.28;37.73;102186.28;5054119;28;20483;-73
2022/06/12 11:28:12;;;;;;;5.35;1.77;;;;;;;25.88;36.60;102191.25;5054345;28;20028;-74
2022/06/12 11:30:52;;;;;;;10.27;2.05;;;;;;;25.54;36.64;102190.72;5053875;28;20040;-74
2022/06/12 11:33:33;;;;;;;6.70;1.95;;;;;;;25.50;36.24;102194.94;5054044;28;20029;-75
2022/06/12 11:36:15;;;;;;;8.57;1.95;;;;;;;25.45;36.78;102186.94;5054078;28;20078;-74
2022/06/12 11:39:08;;;;;;;13.00;2.53;;;;;;;25.41;36.92;102189.31;5054219;28;20090;-73
2022/06/12 11:42:06;;;;;;;8.65;2.03;;;;;;;25.13;36.57;102200.13;5054293;28;20016;-73
2022/06/12 11:45:03;;;;;;;8.60;2.20;;;;;;;25.34;36.23;102194.00;5009024;28;20063;-73
2022/06/12 11:47:44;;;;;;;8.48;2.03;;;;;;;25.71;36.23;102190.56;5035799;28;20500;-73
2022/06/12 11:50:29;;;;;;;6.18;2.10;;;;;;;25.87;34.86;102192.31;5054095;28;20029;-73
2022/06/12 11:53:30;;;;;;;6.25;2.00;;;;;;;25.33;35.08;102189.75;5054056;28;20021;-72
2022/06/12 11:56:19;;;;;;;9.43;2.13;;;;;;;25.11;35.68;102178.41;5053985;28;20029;-74
2022/06/12 11:59:05;;;;;;;7.05;1.88;;;;;;;25.25;36.59;102179.63;5053930;28;20028;-73
2022/06/12 12:01:56;;;;;;;9.27;1.67;;;;;;;25.84;35.17;102173.50;5053500;28;20094;-73